Time,TemperatureF,DewpointF,PressureIn,WindDirection,WindDirectionDegrees,WindSpeedMPH,WindSpeedGustMPH,Humidity,HourlyPrecipIn,Conditions,Clouds,dailyrainin,SolarRadiationWatts/m^2,SoftwareType,DateUTC
2013-05-23 00:00:00,64.5,64.0,29.77,SSW,197,2.0,9.0,98,0.00,,,1.27,0,weatherlink.com 1.10,2013-05-23 04:00:00,
2013-05-23 01:14:00,64.4,64.0,29.77,South,176,1.0,8.0,98,0.00,,,0.00,0,weatherlink.com 1.10,2013-05-23 05:14:00,
2013-05-23 01:30:00,64.2,64.0,29.77,South,177,0.0,4.0,98,0.00,,,0.00,0,weatherlink.com 1.10,2013-05-23 05:30:00,
2013-05-23 01:45:00,64.3,64.0,29.76,South,172,4.0,9.0,98,0.00,,,0.00,0,weatherlink.com 1.10,2013-05-23 05:45:00,
2013-05-23 02:00:00,63.9,63.0,29.75,South,179,0.0,9.0,98,0.00,,,0.00,0,weatherlink.com 1.10,2013-05-23 06:00:00,
2013-05-23 02:15:00,63.5,63.0,29.75,SW,227,0.0,14.0,98,0.00,,,0.00,0,weatherlink.com 1.10,2013-05-23 06:15:00,
2013-05-23 02:30:00,63.0,63.0,29.74,South,186,0.0,7.0,98,0.00,,,0.00,0,weatherlink.com 1.10,2013-05-23 06:30:00,
2013-05-23 02:45:00,62.8,62.0,29.73,SSE,158,0.0,6.0,98,0.00,,,0.00,0,weatherlink.com 1.10,2013-05-23 06:45:00,
2013-05-23 03:00:00,62.3,62.0,29.73,SSW,202,0.0,7.0,97,0.00,,,0.00,0,weatherlink.com 1.10,2013-05-23 07:00:00,
2013-05-23 03:15:00,62.5,61.0,29.73,SSW,202,0.0,8.0,96,0.00,,,0.00,0,weatherlink.com 1.10,2013-05-23 07:15:00,
2013-05-23 03:30:00,62.2,61.0,29.73,SSE,153,0.0,6.0,96,0.00,,,0.00,0,weatherlink.com 1.10,2013-05-23 07:30:00,
2013-05-23 03:46:00,62.0,61.0,29.72,SSE,161,0.0,5.0,97,0.00,,,0.00,0,weatherlink.com 1.10,2013-05-23 07:46:00,
2013-05-23 04:01:00,61.7,61.0,29.73,SSE,165,1.0,5.0,97,0.00,,,0.00,0,weatherlink.com 1.10,2013-05-23 08:01:00,
2013-05-23 04:16:00,61.3,61.0,29.73,SSE,165,0.0,6.0,97,0.00,,,0.00,0,weatherlink.com 1.10,2013-05-23 08:16:00,
2013-05-23 04:31:00,60.8,60.0,29.73,SSE,168,0.0,4.0,96,0.00,,,0.00,0,weatherlink.com 1.10,2013-05-23 08:31:00,
2013-05-23 04:46:00,60.3,59.0,29.73,SSE,168,0.0,4.0,96,0.00,,,0.00,0,weatherlink.com 1.10,2013-05-23 08:46:00,
2013-05-23 05:01:00,60.1,59.0,29.74,South,169,0.0,2.0,96,0.00,,,0.00,0,weatherlink.com 1.10,2013-05-23 09:01:00,
2013-05-23 05:16:00,60.0,59.0,29.75,SSW,196,0.0,4.0,97,0.00,,,0.00,0,weatherlink.com 1.10,2013-05-23 09:16:00,
2013-05-23 05:31:00,60.0,59.0,29.75,SSW,196,0.0,1.0,97,0.00,,,0.00,0,weatherlink.com 1.10,2013-05-23 09:31:00,
2013-05-23 05:46:00,60.2,59.0,29.75,South,189,0.0,1.0,97,0.00,,,0.00,12,weatherlink.com 1.10,2013-05-23 09:46:00,
2013-05-23 06:01:00,60.3,60.0,29.75,SSW,209,0.0,8.0,97,0.00,,,0.00,16,weatherlink.com 1.10,2013-05-23 10:01:00,
2013-05-23 06:16:00,60.0,59.0,29.76,WSW,239,0.0,4.0,97,0.00,,,0.00,26,weatherlink.com 1.10,2013-05-23 10:16:00,
2013-05-23 06:31:00,60.0,59.0,29.76,WSW,239,0.0,2.0,97,0.00,,,0.00,56,weatherlink.com 1.10,2013-05-23 10:31:00,
2013-05-23 06:46:00,61.6,61.0,29.77,SW,236,0.0,4.0,97,0.00,,,0.00,179,weatherlink.com 1.10,2013-05-23 10:46:00,
2013-05-23 07:01:00,63.8,61.0,29.76,SSE,165,1.0,11.0,91,0.00,,,0.00,211,weatherlink.com 1.10,2013-05-23 11:01:00,
2013-05-23 07:16:00,63.7,61.0,29.76,SSW,196,2.0,9.0,90,0.00,,,0.00,141,weatherlink.com 1.10,2013-05-23 11:16:00,
2013-05-23 07:31:00,63.2,61.0,29.76,SSW,205,1.0,10.0,92,0.00,,,0.00,120,weatherlink.com 1.10,2013-05-23 11:31:00,
2013-05-23 07:47:00,63.3,61.0,29.76,South,175,3.0,9.0,93,0.00,,,0.00,134,weatherlink.com 1.10,2013-05-23 11:47:00,
2013-05-23 08:02:00,64.6,62.0,29.76,SSW,192,6.0,9.0,92,0.00,,,0.00,431,weatherlink.com 1.10,2013-05-23 12:02:00,
2013-05-23 08:17:00,65.2,62.0,29.76,SSW,202,0.0,10.0,88,0.00,,,0.00,206,weatherlink.com 1.10,2013-05-23 12:17:00,
2013-05-23 08:32:00,66.3,62.0,29.76,SSW,196,1.0,10.0,86,0.00,,,0.00,504,weatherlink.com 1.10,2013-05-23 12:32:00,
2013-05-23 08:48:00,68.1,63.0,29.76,ESE,111,4.0,10.0,83,0.00,,,0.00,554,weatherlink.com 1.10,2013-05-23 12:48:00,
2013-05-23 09:02:00,68.5,63.0,29.75,WSW,242,6.0,12.0,82,0.00,,,0.00,605,weatherlink.com 1.10,2013-05-23 13:02:00,
2013-05-23 09:18:00,69.6,64.0,29.75,SSE,151,4.0,12.0,81,0.00,,,0.00,809,weatherlink.com 1.10,2013-05-23 13:18:00,
2013-05-23 09:33:00,69.1,64.0,29.75,South,187,8.0,18.0,83,0.00,,,0.00,325,weatherlink.com 1.10,2013-05-23 13:33:00,
2013-05-23 09:48:00,69.2,64.0,29.75,SSW,192,2.0,16.0,82,0.00,,,0.00,475,weatherlink.com 1.10,2013-05-23 13:48:00,
2013-05-23 10:03:00,69.5,63.0,29.75,SSE,150,9.0,15.0,79,0.00,,,0.00,367,weatherlink.com 1.10,2013-05-23 14:03:00,
2013-05-23 10:18:00,69.4,63.0,29.75,SSE,155,6.0,15.0,80,0.00,,,0.00,294,weatherlink.com 1.10,2013-05-23 14:18:00,
2013-05-23 10:33:00,70.6,63.0,29.75,SSE,167,11.0,15.0,77,0.00,,,0.00,1083,weatherlink.com 1.10,2013-05-23 14:33:00,
2013-05-23 10:49:00,70.7,62.0,29.75,SW,223,7.0,19.0,75,0.00,,,0.00,657,weatherlink.com 1.10,2013-05-23 14:49:00,
2013-05-23 11:04:00,72.5,64.0,29.75,SSE,152,2.0,14.0,75,0.00,,,0.00,700,weatherlink.com 1.10,2013-05-23 15:04:00,
2013-05-23 11:19:00,72.6,64.0,29.75,SE,125,12.0,14.0,74,0.00,,,0.00,919,weatherlink.com 1.10,2013-05-23 15:19:00,
2013-05-23 11:34:00,69.5,62.0,29.75,South,186,6.0,12.0,78,0.00,,,0.00,200,weatherlink.com 1.10,2013-05-23 15:34:00,
2013-05-23 11:49:00,69.3,62.0,29.76,SW,234,3.0,13.0,77,0.00,,,0.00,239,weatherlink.com 1.10,2013-05-23 15:49:00,
2013-05-23 12:19:00,68.1,62.0,29.76,SSW,196,5.0,16.0,81,0.00,,,0.00,162,weatherlink.com 1.10,2013-05-23 16:19:00,
2013-05-23 12:34:00,67.1,63.0,29.75,South,188,5.0,11.0,86,0.00,,,0.00,185,weatherlink.com 1.10,2013-05-23 16:34:00,
2013-05-23 12:51:00,66.9,63.0,29.76,South,174,0.0,10.0,88,0.00,,,0.00,148,weatherlink.com 1.10,2013-05-23 16:51:00,
2013-05-23 13:05:00,66.6,63.0,29.75,South,182,0.0,10.0,87,0.00,,,0.00,123,weatherlink.com 1.10,2013-05-23 17:05:00,
2013-05-23 13:21:00,66.2,62.0,29.74,SSE,154,2.0,8.0,87,0.00,,,0.00,281,weatherlink.com 1.10,2013-05-23 17:21:00,
2013-05-23 13:35:00,66.6,63.0,29.74,West,265,0.0,16.0,87,0.00,,,0.00,188,weatherlink.com 1.10,2013-05-23 17:35:00,
2013-05-23 13:51:00,67.6,63.0,29.73,SSE,162,2.0,11.0,85,0.00,,,0.00,476,weatherlink.com 1.10,2013-05-23 17:51:00,
2013-05-23 14:05:00,68.3,63.0,29.72,South,188,11.0,11.0,82,0.00,,,0.00,457,weatherlink.com 1.10,2013-05-23 18:05:00,
2013-05-23 14:21:00,68.2,63.0,29.73,South,180,1.0,12.0,82,0.00,,,0.00,248,weatherlink.com 1.10,2013-05-23 18:21:00,
2013-05-23 14:36:00,67.3,62.0,29.73,SSE,167,8.0,15.0,84,0.00,,,0.00,199,weatherlink.com 1.10,2013-05-23 18:36:00,
2013-05-23 14:51:00,67.4,62.0,29.73,South,185,5.0,14.0,84,0.00,,,0.00,239,weatherlink.com 1.10,2013-05-23 18:51:00,
2013-05-23 15:06:00,66.8,62.0,29.73,SSE,161,4.0,15.0,85,0.00,,,0.00,67,weatherlink.com 1.10,2013-05-23 19:06:00,
2013-05-23 15:21:00,65.1,62.0,29.73,SSW,192,6.0,12.0,90,0.01,,,0.01,37,weatherlink.com 1.10,2013-05-23 19:21:00,
2013-05-23 15:36:00,64.1,62.0,29.73,SSE,163,5.0,14.0,92,0.02,,,0.02,95,weatherlink.com 1.10,2013-05-23 19:36:00,
2013-05-23 15:51:00,64.3,63.0,29.72,SE,146,4.0,11.0,94,0.02,,,0.02,197,weatherlink.com 1.10,2013-05-23 19:51:00,
2013-05-23 16:06:00,63.9,62.0,29.72,South,189,0.0,11.0,94,0.02,,,0.02,53,weatherlink.com 1.10,2013-05-23 20:06:00,
2013-05-23 16:22:00,63.6,62.0,29.72,South,182,1.0,12.0,95,0.01,,,0.02,70,weatherlink.com 1.10,2013-05-23 20:22:00,
2013-05-23 16:37:00,63.7,62.0,29.71,SSW,211,0.0,9.0,95,0.00,,,0.02,172,weatherlink.com 1.10,2013-05-23 20:37:00,
2013-05-23 16:52:00,64.1,63.0,29.71,South,186,1.0,14.0,95,0.00,,,0.02,190,weatherlink.com 1.10,2013-05-23 20:52:00,
2013-05-23 17:08:00,64.3,63.0,29.71,South,183,9.0,9.0,94,0.00,,,0.02,118,weatherlink.com 1.10,2013-05-23 21:08:00,
2013-05-23 17:22:00,64.0,62.0,29.72,SSE,163,1.0,11.0,94,0.00,,,0.02,81,weatherlink.com 1.10,2013-05-23 21:22:00,
2013-05-23 17:37:00,63.6,62.0,29.72,South,177,7.0,9.0,95,0.01,,,0.03,77,weatherlink.com 1.10,2013-05-23 21:37:00,
2013-05-23 17:52:00,63.4,62.0,29.71,South,186,4.0,8.0,96,0.02,,,0.04,54,weatherlink.com 1.10,2013-05-23 21:52:00,
2013-05-23 18:08:00,62.9,62.0,29.71,South,171,3.0,11.0,96,0.03,,,0.05,49,weatherlink.com 1.10,2013-05-23 22:08:00,
2013-05-23 18:23:00,62.7,62.0,29.70,SSE,150,9.0,11.0,97,0.03,,,0.05,26,weatherlink.com 1.10,2013-05-23 22:23:00,
2013-05-23 18:38:00,62.2,61.0,29.71,SSE,153,7.0,14.0,97,0.03,,,0.06,18,weatherlink.com 1.10,2013-05-23 22:38:00,
2013-05-23 18:53:00,61.9,61.0,29.71,South,175,4.0,19.0,97,0.02,,,0.06,14,weatherlink.com 1.10,2013-05-23 22:53:00,
2013-05-23 19:08:00,61.7,61.0,29.71,SSE,161,9.0,19.0,97,0.02,,,0.07,12,weatherlink.com 1.10,2013-05-23 23:08:00,
2013-05-23 19:23:00,61.5,61.0,29.70,SE,130,0.0,11.0,97,0.03,,,0.08,12,weatherlink.com 1.10,2013-05-23 23:23:00,
2013-05-23 19:38:00,61.3,61.0,29.71,SE,144,6.0,16.0,97,0.02,,,0.08,0,weatherlink.com 1.10,2013-05-23 23:38:00,
2013-05-23 19:54:00,61.2,60.0,29.70,SE,136,8.0,18.0,97,0.02,,,0.08,0,weatherlink.com 1.10,2013-05-23 23:54:00,
2013-05-23 20:09:00,61.0,60.0,29.70,South,184,0.0,11.0,97,0.01,,,0.08,0,weatherlink.com 1.10,2013-05-24 00:09:00,
2013-05-23 20:25:00,60.8,60.0,29.70,SSW,198,4.0,13.0,97,0.00,,,0.08,0,weatherlink.com 1.10,2013-05-24 00:25:00,
2013-05-23 20:40:00,60.7,60.0,29.70,SSE,158,6.0,11.0,97,0.00,,,0.08,0,weatherlink.com 1.10,2013-05-24 00:40:00,
2013-05-23 20:55:00,60.7,60.0,29.69,SSW,200,1.0,9.0,97,0.00,,,0.08,0,weatherlink.com 1.10,2013-05-24 00:55:00,
2013-05-23 21:10:00,60.6,60.0,29.70,South,175,0.0,9.0,97,0.00,,,0.08,0,weatherlink.com 1.10,2013-05-24 01:10:00,
2013-05-23 21:25:00,60.5,60.0,29.69,SE,144,0.0,12.0,97,0.00,,,0.08,0,weatherlink.com 1.10,2013-05-24 01:25:00,
2013-05-23 21:40:00,60.4,60.0,29.69,SSE,148,6.0,10.0,97,0.00,,,0.08,0,weatherlink.com 1.10,2013-05-24 01:40:00,
2013-05-23 21:55:00,60.4,60.0,29.69,SSE,155,7.0,9.0,97,0.00,,,0.08,0,weatherlink.com 1.10,2013-05-24 01:55:00,
2013-05-23 22:10:00,60.4,60.0,29.68,South,184,9.0,13.0,97,0.00,,,0.08,0,weatherlink.com 1.10,2013-05-24 02:10:00,
2013-05-23 22:25:00,60.4,60.0,29.68,SSW,202,0.0,13.0,97,0.00,,,0.08,0,weatherlink.com 1.10,2013-05-24 02:25:00,
2013-05-23 22:40:00,60.4,60.0,29.68,South,176,0.0,10.0,98,0.00,,,0.08,0,weatherlink.com 1.10,2013-05-24 02:40:00,
2013-05-23 22:55:00,60.4,60.0,29.67,South,188,6.0,9.0,98,0.00,,,0.08,0,weatherlink.com 1.10,2013-05-24 02:55:00,
2013-05-23 23:10:00,60.4,60.0,29.67,South,177,5.0,8.0,98,0.00,,,0.08,0,weatherlink.com 1.10,2013-05-24 03:10:00,
2013-05-23 23:25:00,60.4,60.0,29.66,South,183,1.0,8.0,98,0.00,,,0.08,0,weatherlink.com 1.10,2013-05-24 03:25:00,
2013-05-23 23:40:00,60.3,60.0,29.66,SSE,157,1.0,8.0,98,0.00,,,0.08,0,weatherlink.com 1.10,2013-05-24 03:40:00,
2013-05-23 23:55:00,60.3,60.0,29.65,SSE,153,0.0,10.0,98,0.01,,,0.09,0,weatherlink.com 1.10,2013-05-24 03:55:00,